Capitol Logistics 293




KDEN
Denver International Airport
Denver, Colorado
KRFD
Chicago/Rockford International Airport
Rockford, Illinois

Activity Log

Date Flight Route Aircraft Duration
05/18/2022 CPX293 EEONS8 WYNDM OBH J100 DBQ B752 1h 54m
11/27/2021 CPX293 EEONS8 WYNDM HCT LNK J146 IOW RFD B752 1h 37m

Route Details

Aircraft Information
Group: North America Fleet
Types: B738,B752,B762,B763
Route Data
Demand: M
Distance: 719nm
Duration: 1h 39m
Recm'd Route: EEONS8 WYNDM HCT OVR CID RFD
Origin Wx: KDEN 272153Z 11009KT 10SM SCT090 BKN150 BKN220 27/02 A2990 RMK AO2 LTG DSNT S AND SW SLP048 T02670017
Dest. Wx: KRFD 272154Z 35006KT 10SM FEW031 OVC041 17/11 A2990 RMK AO2 SLP122 T01720111
Notes:

Financial History
Total Freight: 78,258lbs
Average Load: 39,129lbs/flt
Fuel Used: 22,548lbs
Avg. Fuel Used: 11,274lbs/flt
Fuel Expense: $13,825
Avg. Fuel Expense: $6,913
Avg. Fuel Cost: $0.58/lbs
Total Gross Income: $187,935
Pilot Pay: $358
Total Expenses: $24,068
Total Revenue: $149,528
Average Revenue: $93,967.41